hannes im Turnier von 01.01.2019 bis 01.02.2019

hanness Ergebnis

Rang 570.
Turnierpunkte 926
Gespielt : Gewonnen 100 : 56
Schneider 4
Bilanz 578:517

hanness Bummerln

Zeit Gegner Ergebnis Ende
13:36:45 am 29.01.2019 *Josefa 5:6 crontimeout
13:32:46 am 29.01.2019 Harry 4:8 normal
13:31:00 am 29.01.2019 Andi-Hoe 7:3 normal
13:17:42 am 29.01.2019 E2105 7:6 normal
13:08:22 am 29.01.2019 Jakob 7:3 normal
13:01:05 am 29.01.2019 Kuch 7:6 normal
12:56:56 am 29.01.2019 mari 8:5 normal
10:57:20 am 29.01.2019 Maggy 6:7 normal
10:54:04 am 29.01.2019 Laci 7:0 normal
10:14:57 am 29.01.2019 samsung SM-A320FL 8:6 normal
09:39:43 am 29.01.2019 Andipre 6:8 normal
09:29:24 am 29.01.2019 only2 7:6 normal
09:20:06 am 29.01.2019 Robi Rampre 8:2 normal
09:09:43 am 29.01.2019 Speedbert 63 7:3 normal
09:03:38 am 29.01.2019 Tischhax 5:7 normal
05:59:59 am 29.01.2019 mahony 7:2 normal
05:54:01 am 29.01.2019 Lucifer 7:5 normal
05:20:44 am 29.01.2019 iPhone von Daniela 7:4 normal
08:18:18 am 28.01.2019 arno nym 7:3 normal
08:09:00 am 28.01.2019 we1968pl 0:7 normal
08:05:00 am 28.01.2019 Peta 3:8 normal
05:34:11 am 25.01.2019 F&F 3:8 normal
19:40:30 am 24.01.2019 Mar Tha 7:2 normal
14:55:42 am 24.01.2019 asus ASUS_Z010D 1:7 normal
14:40:22 am 24.01.2019 ROLI 8:3 normal
14:01:54 am 24.01.2019 tom001 7:2 normal
13:50:45 am 24.01.2019 Steffi 7:2 normal
11:25:48 am 24.01.2019 christina 5:9 normal
06:57:42 am 24.01.2019 martschi 3:8 normal
20:15:28 am 23.01.2019 Katrin Katara 3:8 normal
19:27:26 am 23.01.2019 Träumelein 6:8 normal
09:21:20 am 23.01.2019 Aziz 8:0 normal
09:17:29 am 23.01.2019 Einstein 7:1 normal
09:13:38 am 23.01.2019 DAFY 7:2 normal
09:02:13 am 23.01.2019 kochi 2:8 normal
08:54:18 am 23.01.2019 Smurf 8:6 normal
13:22:06 am 22.01.2019 *iPhone 3:6 crontimeout
06:40:52 am 22.01.2019 rehlein 0:7 normal
06:38:08 am 22.01.2019 windtalker_ 7:4 normal
06:00:04 am 22.01.2019 Hupo 4:7 normal
05:54:36 am 22.01.2019 Peter1710 7:3 normal
05:35:00 am 22.01.2019 wir sind Österreich 7:2 normal
19:52:50 am 21.01.2019 crisu 3:7 normal
07:04:52 am 21.01.2019 martines 0:8 normal
06:56:44 am 21.01.2019 Vadász Ferenc 8:5 normal
06:54:10 am 21.01.2019 andi93 7:4 normal
06:17:56 am 21.01.2019 Danie 7:2 normal
07:37:12 am 18.01.2019 Mary Playing 7:3 normal
05:44:31 am 18.01.2019 Peda-74 5:9 normal
05:24:13 am 18.01.2019 gyuri78 5:7 normal
21:08:56 am 17.01.2019 christian 8:1 normal
09:03:21 am 17.01.2019 Gernot Sölkner 7:1 normal
07:16:24 am 17.01.2019 Michael Baschinger 7:4 normal
07:12:45 am 17.01.2019 Petermariannelucasfl... 0:7 normal
19:37:40 am 16.01.2019 walt 8:0 normal
19:29:39 am 16.01.2019 Manuel Reiter 8:5 normal
19:23:51 am 16.01.2019 Schnapserqueen 7:2 normal
06:12:38 am 16.01.2019 fredl2244 8:6 normal
20:00:40 am 14.01.2019 rokra 4:9 normal
18:40:17 am 14.01.2019 *Bauer 4:6 crontimeout
13:22:47 am 14.01.2019 *Mance 3:5 crontimeout
13:12:28 am 14.01.2019 Olga 6:7 normal
09:02:31 am 14.01.2019 *Wolf 6:8 autocontnormal
08:57:09 am 14.01.2019 Patrick Hansé Lackner 8:6 normal
06:47:59 am 14.01.2019 Manuela 3:7 normal
06:43:31 am 14.01.2019 M.Tom 7:5 normal
06:18:04 am 14.01.2019 Andreas Huber 7:6 normal
06:11:46 am 14.01.2019 Carlos 2:7 normal
06:17:32 am 12.01.2019 leobia 7:1 normal
06:12:23 am 12.01.2019 Franz Fandl 7:4 normal
19:13:06 am 09.01.2019 Hans Thomann 6:8 normal
19:06:07 am 09.01.2019 Christian Glaser 8:6 normal
07:22:08 am 09.01.2019 schnapsleiche 7:1 normal
07:17:19 am 09.01.2019 xRe1.Ta2.x 8:4 normal
20:07:18 am 08.01.2019 Charlie Firpo 5:7 normal
13:06:32 am 08.01.2019 pam 5:8 normal
13:01:34 am 08.01.2019 lukas95 6:8 normal
11:06:53 am 08.01.2019 Markus Kepplinger 3:7 normal
08:18:03 am 08.01.2019 maschi77 6:7 normal
08:14:58 am 08.01.2019 hosa1825 2:7 normal
08:09:15 am 08.01.2019 *Peter 8:6 autocontnormal
10:30:15 am 07.01.2019 Geggi Strobl 8:4 normal
10:16:54 am 07.01.2019 Ingo Anreiter 8:1 normal
10:13:50 am 07.01.2019 Harry K Pax 2:9 normal
19:23:01 am 06.01.2019 Franzi FWT 8:4 normal
19:19:44 am 06.01.2019 schnatte 9:0 normal
20:51:21 am 05.01.2019 Thomas Brandner 7:6 normal
18:14:59 am 04.01.2019 lindner 4:8 normal
05:44:27 am 04.01.2019 sauvignon57 8:5 normal
21:27:19 am 03.01.2019 bauxl 7:2 normal
21:24:37 am 03.01.2019 Hr. Werner 1:7 normal
21:21:23 am 03.01.2019 espressokarli 3:8 normal
12:04:40 am 03.01.2019 Denis 5:8 normal
12:00:49 am 03.01.2019 Dizzy 6:8 normal
08:40:31 am 03.01.2019 Mecha 7:4 normal
08:37:57 am 03.01.2019 Christian Hofmeister 8:3 normal
20:30:15 am 02.01.2019 DELETED 6:7 normal
20:22:10 am 02.01.2019 Maba 8:5 normal
20:17:14 am 02.01.2019 Michael Lesky 3:8 normal
13:53:28 am 02.01.2019 Janobi 7:1 normal